Time;durP1;ratioP1;P1;durP2;ratioP2;P2;SDS_P1;SDS_P2;PMS_P1;PMS_P2;Temp;Humidity;BMP_temperature;BMP_pressure;BME280_temperature;BME280_humidity;BME280_pressure;Samples;Min_cycle;Max_cycle;Signal;HPM_P1;HPM_P2
2023/11/09 00:02:06;;;;;;;9.57;5.10;;;;;;;25.27;38.47;99971.69;4469073;32;34485;-50
2023/11/09 00:04:34;;;;;;;9.30;5.15;;;;;;;25.27;38.58;99975.25;4469360;32;34021;-59
2023/11/09 00:07:01;;;;;;;12.37;5.32;;;;;;;25.26;38.66;99965.41;4469102;32;34326;-55
2023/11/09 00:09:29;;;;;;;9.77;5.10;;;;;;;25.26;38.68;99976.34;4469143;32;33801;-58
2023/11/09 00:11:58;;;;;;;9.88;4.78;;;;;;;25.25;38.80;99971.94;4469119;32;33494;-55
2023/11/09 00:14:25;;;;;;;7.72;5.60;;;;;;;25.24;38.88;99972.19;4471379;32;33430;-50
2023/11/09 00:16:53;;;;;;;9.60;5.50;;;;;;;25.24;38.92;99964.00;4484673;32;33661;-51
2023/11/09 00:19:21;;;;;;;6.78;4.70;;;;;;;25.22;38.95;99964.22;4484634;32;33772;-55
2023/11/09 00:21:48;;;;;;;8.88;5.20;;;;;;;25.21;39.03;99961.72;4484817;32;34298;-50
2023/11/09 00:24:16;;;;;;;8.65;5.35;;;;;;;25.20;39.14;99958.16;4484529;32;33536;-56
2023/11/09 00:26:45;;;;;;;7.60;4.70;;;;;;;25.21;39.14;99961.72;4484594;32;34647;-55
2023/11/09 00:29:13;;;;;;;7.60;4.87;;;;;;;25.20;39.30;99963.63;4484743;32;33733;-52
2023/11/09 00:31:40;;;;;;;11.35;5.07;;;;;;;25.19;39.31;99957.34;4483306;32;34791;-54
2023/11/09 00:34:11;;;;;;;8.90;5.40;;;;;;;25.18;39.34;99957.56;4484520;32;33494;-52
2023/11/09 00:36:39;;;;;;;8.13;4.93;;;;;;;25.18;39.43;99952.94;4484840;32;33782;-54
2023/11/09 00:39:09;;;;;;;8.50;5.05;;;;;;;25.16;39.51;99952.34;4484291;32;34750;-55
2023/11/09 00:41:36;;;;;;;7.47;5.03;;;;;;;25.15;39.57;99939.75;4484648;32;33732;-55
2023/11/09 00:44:04;;;;;;;10.10;5.20;;;;;;;25.15;39.53;99947.94;4484537;32;34079;-53
2023/11/09 00:46:31;;;;;;;6.57;4.53;;;;;;;25.13;39.58;99939.16;4484394;32;34412;-55
2023/11/09 00:48:59;;;;;;;8.48;5.30;;;;;;;25.13;39.66;99941.03;4484406;32;33753;-55
2023/11/09 00:51:28;;;;;;;8.90;4.50;;;;;;;25.12;39.68;99944.84;4484422;32;34963;-56
2023/11/09 00:53:55;;;;;;;8.50;4.78;;;;;;;25.12;39.72;99947.56;4484383;32;33355;-55
2023/11/09 00:56:23;;;;;;;9.13;4.60;;;;;;;25.10;39.88;99947.81;4484529;32;34555;-53
2023/11/09 00:58:53;;;;;;;10.13;4.87;;;;;;;25.10;39.96;99952.47;4484364;32;33534;-53
2023/11/09 01:01:20;;;;;;;7.12;4.43;;;;;;;25.11;39.87;99956.84;4484258;32;34236;-52
2023/11/09 01:03:48;;;;;;;8.63;5.07;;;;;;;25.10;39.96;99947.00;4484415;32;33455;-52
2023/11/09 01:06:16;;;;;;;7.55;4.68;;;;;;;25.08;40.01;99949.09;4484769;32;33878;-53
2023/11/09 01:08:43;;;;;;;7.80;4.47;;;;;;;25.08;39.98;99949.94;4484309;32;33751;-56
2023/11/09 01:11:11;;;;;;;6.47;4.35;;;;;;;25.07;39.99;99940.09;4484201;32;34799;-50
2023/11/09 01:13:38;;;;;;;8.98;4.87;;;;;;;25.07;39.97;99948.28;4484320;32;33596;-52
2023/11/09 01:16:06;;;;;;;7.53;4.37;;;;;;;25.07;40.01;99941.97;4484015;32;33619;-54
2023/11/09 01:18:34;;;;;;;8.15;4.32;;;;;;;25.05;40.02;99939.47;4484279;32;34133;-50
2023/11/09 01:21:01;;;;;;;8.80;4.62;;;;;;;25.05;40.00;99946.84;4484526;32;33835;-51
2023/11/09 01:23:29;;;;;;;9.18;4.90;;;;;;;25.04;40.00;99945.16;4484498;32;33202;-55
2023/11/09 01:25:56;;;;;;;7.90;4.60;;;;;;;25.03;40.08;99947.03;4484227;32;34096;-54
2023/11/09 01:28:24;;;;;;;7.00;4.10;;;;;;;25.03;40.04;99948.94;4484079;32;34009;-54
2023/11/09 01:30:51;;;;;;;7.50;4.40;;;;;;;25.02;40.12;99945.38;4484111;32;33718;-53
2023/11/09 01:33:19;;;;;;;9.23;4.18;;;;;;;25.02;40.12;99948.13;4484125;32;34302;-52
2023/11/09 01:35:47;;;;;;;6.97;4.15;;;;;;;25.02;40.05;99941.84;4484080;32;34352;-52
2023/11/09 01:38:14;;;;;;;8.00;4.20;;;;;;;25.02;40.09;99944.56;4484042;32;34467;-49
2023/11/09 01:40:42;;;;;;;7.25;4.30;;;;;;;25.01;40.02;99941.00;4483974;32;34560;-51
2023/11/09 01:43:14;;;;;;;5.65;3.55;;;;;;;25.01;40.08;99931.97;4482456;32;33491;-55
2023/11/09 01:45:44;;;;;;;6.87;4.35;;;;;;;25.00;40.05;99928.41;4484002;32;33496;-50
2023/11/09 01:48:14;;;;;;;7.47;4.25;;;;;;;25.00;40.08;99930.31;4483722;32;33899;-53
2023/11/09 01:50:41;;;;;;;7.10;4.22;;;;;;;24.99;40.19;99932.19;4482543;32;33260;-52
2023/11/09 01:53:10;;;;;;;8.23;4.28;;;;;;;24.99;40.11;99937.66;4483955;32;33409;-55
2023/11/09 01:55:37;;;;;;;6.20;3.92;;;;;;;24.99;40.17;99931.38;4483769;32;34663;-55
2023/11/09 01:58:05;;;;;;;7.22;4.00;;;;;;;24.98;40.16;99933.28;4482455;32;34009;-49
2023/11/09 02:00:33;;;;;;;6.43;3.70;;;;;;;24.98;40.22;99937.91;4482461;32;33963;-51
2023/11/09 02:03:01;;;;;;;7.57;3.80;;;;;;;24.96;40.28;99932.69;4482571;32;33395;-56
2023/11/09 02:05:29;;;;;;;8.23;4.05;;;;;;;24.97;40.22;99930.78;4483570;32;33949;-51
2023/11/09 02:07:56;;;;;;;8.07;4.00;;;;;;;24.96;40.40;99935.41;4477553;32;33893;-52
2023/11/09 02:10:24;;;;;;;7.80;4.40;;;;;;;24.96;40.45;99931.84;4483603;32;34009;-57
2023/11/09 02:12:51;;;;;;;7.37;4.47;;;;;;;24.93;40.45;99925.78;4468237;32;34381;-52
2023/11/09 02:15:19;;;;;;;6.65;4.28;;;;;;;24.93;40.43;99928.50;4483431;32;33964;-54
2023/11/09 02:17:47;;;;;;;6.22;4.03;;;;;;;24.93;40.39;99927.69;4483531;32;34121;-57
2023/11/09 02:20:14;;;;;;;6.93;3.85;;;;;;;24.93;40.37;99935.88;4483575;32;33888;-56
2023/11/09 02:22:52;;;;;;;7.15;4.22;;;;;;;24.91;40.42;99925.19;4481981;32;33653;-51
2023/11/09 02:25:20;;;;;;;5.68;3.85;;;;;;;24.91;40.43;99921.62;4483204;32;33882;-52
2023/11/09 02:27:47;;;;;;;6.37;4.00;;;;;;;24.91;40.42;99922.47;4483348;32;34011;-51
2023/11/09 02:30:15;;;;;;;7.07;3.80;;;;;;;24.92;40.31;99915.09;4483636;32;33809;-52
2023/11/09 02:32:43;;;;;;;6.53;3.45;;;;;;;24.91;40.38;99916.19;4483168;32;34268;-53
2023/11/09 02:35:10;;;;;;;7.32;4.10;;;;;;;24.88;40.33;99912.00;4483182;32;34815;-54
2023/11/09 02:37:38;;;;;;;6.50;4.10;;;;;;;24.88;40.39;99919.38;4483234;32;33649;-53
2023/11/09 02:40:08;;;;;;;6.62;3.90;;;;;;;24.88;40.33;99913.91;4482917;32;34687;-50
2023/11/09 02:42:35;;;;;;;9.38;3.75;;;;;;;24.86;40.37;99919.59;4483551;32;33230;-50
2023/11/09 02:45:03;;;;;;;6.07;3.83;;;;;;;24.88;40.44;99924.81;4483117;32;33839;-51
2023/11/09 02:47:31;;;;;;;5.95;3.87;;;;;;;24.87;40.45;99925.91;4482915;32;34897;-54
2023/11/09 02:49:59;;;;;;;5.97;3.40;;;;;;;24.86;40.38;99929.69;4483080;32;33983;-50
2023/11/09 02:52:26;;;;;;;7.28;4.07;;;;;;;24.86;40.51;99926.97;4483332;32;33323;-56
2023/11/09 02:54:55;;;;;;;7.12;3.92;;;;;;;24.85;40.47;99928.00;4483692;32;34679;-55
2023/11/09 02:57:22;;;;;;;6.85;4.25;;;;;;;24.84;40.50;99929.06;4485483;32;33755;-50
2023/11/09 02:59:50;;;;;;;7.03;3.90;;;;;;;24.84;40.52;99923.63;4470940;32;33549;-53
2023/11/09 03:02:18;;;;;;;6.37;3.72;;;;;;;24.82;40.49;99925.75;4485020;32;34225;-51
2023/11/09 03:04:46;;;;;;;6.25;3.90;;;;;;;24.82;40.49;99925.75;4485227;32;34518;-56
2023/11/09 03:07:14;;;;;;;6.70;3.97;;;;;;;24.82;40.50;99923.88;4485500;32;33911;-54
2023/11/09 03:09:44;;;;;;;5.87;3.55;;;;;;;24.83;40.51;99924.69;4485059;32;34772;-48
2023/11/09 03:12:11;;;;;;;6.00;3.72;;;;;;;24.81;40.54;99926.84;4485105;31;33569;-49
2023/11/09 03:14:39;;;;;;;6.12;3.42;;;;;;;24.80;40.38;99927.88;4484982;32;34006;-53
2023/11/09 03:17:09;;;;;;;6.50;3.60;;;;;;;24.80;40.40;99925.16;4484922;32;34089;-55
2023/11/09 03:19:37;;;;;;;5.62;3.45;;;;;;;24.79;40.47;99920.75;4485103;32;33883;-49
2023/11/09 03:22:07;;;;;;;6.10;3.55;;;;;;;24.79;40.52;99918.03;4485057;32;33633;-53
2023/11/09 03:24:36;;;;;;;6.72;3.67;;;;;;;24.77;40.48;99921.00;4485119;32;34027;-55
2023/11/09 03:27:09;;;;;;;6.10;3.65;;;;;;;24.77;40.51;99915.53;4485158;32;34721;-57
2023/11/09 03:29:37;;;;;;;5.55;3.20;;;;;;;24.76;40.66;99918.47;4484847;32;34561;-55
2023/11/09 03:32:08;;;;;;;7.50;3.72;;;;;;;24.76;40.55;99916.63;4485136;32;33190;-50
2023/11/09 03:34:37;;;;;;;6.03;3.35;;;;;;;24.76;40.58;99918.47;4485007;32;34552;-54
2023/11/09 03:37:06;;;;;;;5.62;3.35;;;;;;;24.75;40.57;99916.81;4484899;32;34809;-51
2023/11/09 03:39:35;;;;;;;8.13;3.70;;;;;;;24.75;40.64;99914.09;4484866;32;34683;-55
2023/11/09 03:42:03;;;;;;;5.18;3.40;;;;;;;24.73;40.62;99917.06;4484971;32;33971;-52
2023/11/09 03:44:35;;;;;;;6.40;3.75;;;;;;;24.72;40.67;99912.69;4484732;32;33920;-51
2023/11/09 03:47:03;;;;;;;5.60;3.80;;;;;;;24.72;40.71;99909.13;4484876;32;34843;-51
2023/11/09 03:49:30;;;;;;;8.60;3.70;;;;;;;24.71;40.67;99907.44;4484744;32;34473;-55
2023/11/09 03:51:58;;;;;;;6.45;4.20;;;;;;;24.70;40.66;99901.16;4484978;32;32961;-52
2023/11/09 03:54:25;;;;;;;5.75;3.25;;;;;;;24.70;40.68;99901.16;4484869;32;33925;-55
2023/11/09 03:56:53;;;;;;;6.18;3.50;;;;;;;24.69;40.66;99897.59;4484699;32;34658;-53
2023/11/09 03:59:21;;;;;;;8.70;3.55;;;;;;;24.69;40.65;99894.87;4484736;32;34564;-52
2023/11/09 04:01:48;;;;;;;6.05;3.42;;;;;;;24.69;40.62;99905.78;4484880;32;34197;-55
2023/11/09 04:04:16;;;;;;;5.57;3.47;;;;;;;24.68;40.73;99904.13;4484613;32;34693;-55
2023/11/09 04:06:46;;;;;;;5.68;3.33;;;;;;;24.67;40.82;99913.38;4484435;32;35498;-53
2023/11/09 04:09:14;;;;;;;;;;;;;;;24.67;40.83;99907.91;4485141;32;33892;-52
2023/11/09 04:11:42;;;;;;;6.72;3.92;;;;;;;24.78;40.66;99908.19;4484674;32;33445;-51
2023/11/09 04:14:09;;;;;;;6.47;3.45;;;;;;;24.70;40.60;99909.34;4484753;32;33487;-51
2023/11/09 04:16:37;;;;;;;5.75;3.70;;;;;;;24.67;40.77;99905.19;4484786;32;33644;-51
2023/11/09 04:19:07;;;;;;;6.53;3.62;;;;;;;24.67;40.83;99905.19;4484515;32;34936;-51
2023/11/09 04:21:35;;;;;;;5.03;3.28;;;;;;;24.65;40.84;99898.28;4484620;32;33271;-50
2023/11/09 04:24:05;;;;;;;6.53;3.40;;;;;;;24.65;40.88;99901.84;4484713;32;34017;-54
2023/11/09 04:26:34;;;;;;;6.30;3.90;;;;;;;24.65;40.87;99895.56;4484466;32;34751;-51
2023/11/09 04:29:03;;;;;;;5.93;3.35;;;;;;;24.64;40.88;99896.63;4484450;32;33889;-53
2023/11/09 04:31:31;;;;;;;6.72;3.47;;;;;;;24.64;40.86;99885.72;4484693;32;33548;-50
2023/11/09 04:34:03;;;;;;;6.97;3.45;;;;;;;24.64;40.94;99885.72;4484445;32;33421;-55
2023/11/09 04:36:31;;;;;;;5.62;3.30;;;;;;;24.63;40.92;99890.34;4484743;32;33588;-54
2023/11/09 04:39:01;;;;;;;5.68;2.90;;;;;;;24.63;40.90;99893.06;4483215;32;34771;-53
2023/11/09 04:41:28;;;;;;;6.67;3.20;;;;;;;24.63;40.87;99894.97;4484802;32;32933;-51
2023/11/09 04:43:57;;;;;;;5.60;3.17;;;;;;;24.63;40.90;99898.53;4484805;32;33566;-56
2023/11/09 04:46:24;;;;;;;6.78;3.22;;;;;;;24.60;40.95;99898.16;4484242;32;34845;-49
2023/11/09 04:48:55;;;;;;;5.47;3.22;;;;;;;24.61;40.92;99897.09;4484734;32;33882;-51
2023/11/09 04:51:30;;;;;;;5.37;3.30;;;;;;;24.60;40.93;99898.16;4484823;32;33406;-51
2023/11/09 04:54:06;;;;;;;6.20;3.60;;;;;;;24.60;40.93;99896.25;4484279;32;33716;-54
2023/11/09 05:06:48;;;;;;;5.03;3.10;;;;;;;24.58;41.13;99890.22;4484193;32;33619;-55
2023/11/09 05:07:35;;;;;;;5.57;3.47;;;;;;;24.56;40.93;99895.06;4484347;32;34416;-49
2023/11/09 05:10:03;;;;;;;6.30;3.30;;;;;;;24.56;41.10;99899.69;4483141;32;34578;-53
2023/11/09 05:12:30;;;;;;;7.18;3.30;;;;;;;24.56;41.08;99903.25;4484260;32;34245;-52
2023/11/09 05:15:00;;;;;;;6.50;3.00;;;;;;;24.57;41.04;99904.06;4484085;32;33989;-52
2023/11/09 05:17:31;;;;;;;6.00;3.22;;;;;;;24.55;41.11;99901.59;4483244;32;34058;-50
2023/11/09 05:19:59;;;;;;;5.65;3.28;;;;;;;24.55;41.11;99900.75;4484216;32;35023;-56
2023/11/09 05:22:26;;;;;;;5.85;3.60;;;;;;;24.55;41.14;99904.31;4484119;32;34875;-52
2023/11/09 05:24:54;;;;;;;6.35;3.05;;;;;;;24.54;41.25;99908.09;4470171;32;34624;-53
2023/11/09 05:27:22;;;;;;;8.02;3.17;;;;;;;24.54;41.05;99897.19;4484194;32;34725;-57
2023/11/09 05:29:52;;;;;;;5.87;3.33;;;;;;;24.53;41.20;99890.09;4484190;32;34352;-55
2023/11/09 05:32:20;;;;;;;;;;;;;;;24.53;41.23;99892.81;4483990;32;34737;-54
2023/11/09 05:34:47;;;;;;;5.50;2.70;;;;;;;24.61;41.15;99881.53;4483542;32;33975;-55
2023/11/09 05:37:15;;;;;;;7.68;3.95;;;;;;;24.55;41.05;99882.47;4483191;32;34775;-59
2023/11/09 05:39:43;;;;;;;8.85;4.32;;;;;;;24.54;40.21;99875.38;4483414;32;35046;-56
2023/11/09 05:42:10;;;;;;;8.07;4.00;;;;;;;24.51;38.82;99870.38;4483508;32;33756;-59
2023/11/09 05:44:38;;;;;;;6.70;4.05;;;;;;;24.49;38.82;99872.50;4483507;32;34535;-60
2023/11/09 05:47:09;;;;;;;;;;;;;;;24.46;39.05;99872.13;4483850;32;33888;-59
2023/11/09 05:49:36;;;;;;;7.65;3.80;;;;;;;24.52;39.01;99873.94;4483404;32;34276;-59
2023/11/09 05:52:04;;;;;;;8.93;4.07;;;;;;;24.41;39.19;99881.84;4483765;32;33356;-58
2023/11/09 05:54:32;;;;;;;7.62;4.28;;;;;;;24.36;39.31;99891.75;4483725;32;34687;-59
2023/11/09 05:56:59;;;;;;;9.45;4.05;;;;;;;24.33;39.36;99890.31;4483602;32;34816;-59
2023/11/09 05:59:26;;;;;;;9.73;4.25;;;;;;;24.30;39.44;99887.22;4483534;32;33824;-58
2023/11/09 06:01:54;;;;;;;7.62;3.67;;;;;;;24.28;39.43;99883.88;4483523;32;33046;-59
2023/11/09 06:04:22;;;;;;;7.10;4.18;;;;;;;24.26;39.42;99886.03;4481724;32;34446;-59
2023/11/09 06:06:50;;;;;;;7.97;3.92;;;;;;;24.26;39.50;99896.94;4482129;32;33804;-58
2023/11/09 06:09:17;;;;;;;7.15;4.15;;;;;;;24.23;39.58;99887.28;4481997;32;34097;-61
2023/11/09 06:11:46;;;;;;;7.70;4.43;;;;;;;24.23;39.65;99890.03;4481758;31;33825;-59
2023/11/09 06:14:16;;;;;;;8.98;4.32;;;;;;;24.23;39.71;99900.09;4481840;32;34665;-59
2023/11/09 06:16:44;;;;;;;5.97;3.85;;;;;;;24.21;39.74;99894.06;4481511;32;34075;-58
2023/11/09 06:19:14;;;;;;;6.82;3.83;;;;;;;24.21;39.75;99900.34;4483183;32;33693;-58
2023/11/09 06:21:41;;;;;;;7.20;4.25;;;;;;;24.19;39.80;99903.28;4483411;32;34155;-59
2023/11/09 06:24:09;;;;;;;10.13;3.90;;;;;;;24.18;39.79;99909.78;4483399;32;34559;-58
2023/11/09 06:26:37;;;;;;;7.37;3.87;;;;;;;24.18;39.81;99908.97;4483386;32;33862;-59
2023/11/09 06:29:04;;;;;;;8.63;4.40;;;;;;;24.15;39.81;99915.72;4484261;32;33811;-59
2023/11/09 06:31:32;;;;;;;9.60;4.30;;;;;;;24.15;39.82;99910.28;4484299;32;33902;-57
2023/11/09 06:33:59;;;;;;;6.97;4.00;;;;;;;24.15;39.80;99913.00;4485323;32;34911;-59
2023/11/09 06:36:28;;;;;;;6.12;3.62;;;;;;;24.14;39.89;99910.47;4485380;32;34784;-60
2023/11/09 06:38:56;;;;;;;8.70;4.12;;;;;;;24.13;39.85;99914.28;4485174;32;33575;-59
2023/11/09 06:41:27;;;;;;;8.90;3.78;;;;;;;24.11;39.87;99914.50;4484861;32;33307;-59
2023/11/09 06:43:55;;;;;;;7.97;3.95;;;;;;;24.12;39.86;99918.06;4485376;32;34378;-59
2023/11/09 06:46:23;;;;;;;8.73;4.03;;;;;;;24.11;39.82;99913.69;4485261;32;33767;-59
2023/11/09 06:48:52;;;;;;;9.57;4.07;;;;;;;24.09;39.86;99916.63;4485471;32;34410;-58
2023/11/09 06:51:20;;;;;;;7.85;3.78;;;;;;;24.08;39.85;99914.12;4484083;32;32305;-58
2023/11/09 06:53:47;;;;;;;8.27;4.32;;;;;;;24.08;39.84;99922.31;4485412;32;33672;-56
2023/11/09 06:56:16;;;;;;;6.15;3.67;;;;;;;24.06;39.84;99919.81;4481262;32;34157;-59
2023/11/09 06:58:43;;;;;;;6.57;3.65;;;;;;;24.06;39.86;99918.97;4485248;32;34741;-59
2023/11/09 07:01:11;;;;;;;7.35;3.92;;;;;;;24.05;39.90;99915.41;4485050;32;33528;-58
2023/11/09 07:03:39;;;;;;;7.60;4.45;;;;;;;24.05;39.87;99925.47;4485123;32;33949;-62
2023/11/09 07:06:06;;;;;;;6.87;4.07;;;;;;;24.05;39.84;99923.59;4485459;32;34018;-62
2023/11/09 07:08:34;;;;;;;8.25;4.57;;;;;;;24.05;39.87;99928.19;4485010;32;33938;-59
2023/11/09 07:11:01;;;;;;;7.35;4.10;;;;;;;24.03;39.84;99927.63;4485450;31;33631;-63
2023/11/09 07:13:29;;;;;;;6.18;3.95;;;;;;;24.02;39.82;99921.34;4485407;32;33838;-64
2023/11/09 07:15:56;;;;;;;5.70;3.67;;;;;;;24.03;39.82;99922.16;4484929;32;34904;-63
2023/11/09 07:18:24;;;;;;;6.82;4.03;;;;;;;24.02;39.89;99913.16;4485189;32;33147;-60
2023/11/09 07:20:52;;;;;;;9.45;3.83;;;;;;;24.02;39.87;99907.69;4485095;32;34156;-58
2023/11/09 07:23:33;;;;;;;6.37;4.12;;;;;;;24.02;39.84;99910.44;4485235;32;33940;-59
2023/11/09 07:26:01;;;;;;;6.50;3.92;;;;;;;24.03;39.88;99909.37;4485193;32;34776;-59
2023/11/09 07:28:29;;;;;;;6.47;3.75;;;;;;;24.03;39.84;99911.25;4484958;32;33732;-63
2023/11/09 07:30:59;;;;;;;8.43;3.60;;;;;;;24.02;39.91;99913.16;4484998;32;34206;-58
2023/11/09 07:33:26;;;;;;;7.40;3.95;;;;;;;24.03;39.90;99917.53;4485057;32;34600;-63
2023/11/09 07:35:54;;;;;;;6.68;3.87;;;;;;;24.03;39.84;99906.62;4484868;32;34042;-59
2023/11/09 07:38:21;;;;;;;5.55;3.80;;;;;;;24.03;39.86;99912.09;4485089;32;33083;-59
2023/11/09 07:40:49;;;;;;;6.53;3.70;;;;;;;24.03;39.84;99912.09;4484586;32;33393;-61
2023/11/09 07:43:18;;;;;;;7.28;3.85;;;;;;;24.03;39.88;99901.19;4484655;32;34727;-58
2023/11/09 07:45:46;;;;;;;6.10;3.73;;;;;;;24.04;39.86;99902.00;4484980;32;33995;-56
2023/11/09 07:48:13;;;;;;;8.32;4.10;;;;;;;24.04;39.86;99902.84;4484626;32;35136;-60
2023/11/09 07:50:41;;;;;;;6.15;3.58;;;;;;;24.04;39.85;99900.13;4484719;32;33622;-57
2023/11/09 07:53:09;;;;;;;7.37;3.50;;;;;;;24.04;39.86;99897.38;4484981;32;34820;-58
2023/11/09 07:55:36;;;;;;;6.47;3.90;;;;;;;24.05;39.85;99898.22;4484819;32;34693;-62
2023/11/09 07:58:05;;;;;;;6.70;3.72;;;;;;;24.05;39.83;99898.22;4484695;32;33726;-62
2023/11/09 08:00:33;;;;;;;6.90;3.67;;;;;;;24.04;39.83;99894.66;4484758;32;34198;-64
2023/11/09 08:03:01;;;;;;;7.05;3.50;;;;;;;24.04;39.83;99896.56;4484824;32;33826;-62
2023/11/09 08:05:29;;;;;;;7.10;3.90;;;;;;;24.05;39.83;99892.78;4484721;32;33465;-62
2023/11/09 08:07:57;;;;;;;6.65;3.85;;;;;;;24.05;39.85;99890.88;4484909;32;33920;-63
2023/11/09 08:10:25;;;;;;;6.85;3.78;;;;;;;24.04;39.83;99885.66;4484859;32;33607;-63
2023/11/09 08:12:53;;;;;;;7.12;3.85;;;;;;;24.05;39.81;99887.31;4484370;32;33770;-63
2023/11/09 08:15:22;;;;;;;7.85;4.40;;;;;;;24.05;39.87;99882.69;4484894;32;34855;-64
2023/11/09 08:17:50;;;;;;;8.52;3.90;;;;;;;24.05;39.86;99879.97;4484795;32;34699;-63
2023/11/09 08:20:18;;;;;;;7.30;3.87;;;;;;;24.07;39.86;99877.03;4484561;32;33263;-63
2023/11/09 08:22:46;;;;;;;6.43;3.75;;;;;;;24.06;39.88;99867.16;4484579;32;33864;-63
2023/11/09 08:25:14;;;;;;;6.10;3.60;;;;;;;24.07;39.90;99874.31;4484631;32;34031;-63
2023/11/09 08:27:42;;;;;;;9.13;4.03;;;;;;;24.06;39.94;99862.56;4484652;32;34558;-63
2023/11/09 08:30:10;;;;;;;7.78;3.62;;;;;;;24.07;39.95;99871.59;4484665;32;34147;-64
2023/11/09 08:32:38;;;;;;;5.25;3.10;;;;;;;24.07;39.94;99874.31;4484361;32;33853;-63
2023/11/09 08:35:10;;;;;;;7.43;4.03;;;;;;;24.06;39.90;99868.03;4484671;32;34772;-63
2023/11/09 08:37:38;;;;;;;5.85;3.55;;;;;;;24.09;39.89;99877.63;4484362;32;34174;-62
2023/11/09 08:40:16;;;;;;;5.62;3.33;;;;;;;24.07;39.90;99872.41;4470537;32;33158;-63
2023/11/09 08:42:46;;;;;;;7.68;3.50;;;;;;;24.07;39.90;99868.84;4484486;32;34503;-63
2023/11/09 08:45:17;;;;;;;6.18;3.20;;;;;;;24.07;39.85;99856.06;4483337;32;33980;-63
2023/11/09 08:47:45;;;;;;;4.53;3.00;;;;;;;24.09;39.79;99870.28;4483492;32;33869;-63
2023/11/09 08:50:13;;;;;;;7.03;3.17;;;;;;;24.09;39.86;99872.16;4484511;32;34164;-64
2023/11/09 08:52:41;;;;;;;7.12;3.65;;;;;;;24.08;39.85;99865.91;4483358;32;33726;-59
2023/11/09 08:55:09;;;;;;;6.90;3.53;;;;;;;24.09;39.83;99859.38;4483182;32;34385;-58
2023/11/09 08:57:38;;;;;;;6.50;3.42;;;;;;;24.10;39.84;99865.66;4484457;32;33861;-59
2023/11/09 09:00:12;;;;;;;8.65;3.28;;;;;;;24.10;39.88;99868.38;4482983;32;33449;-59
2023/11/09 09:02:45;;;;;;;7.78;3.05;;;;;;;24.10;39.84;99862.94;4484403;32;33087;-63
2023/11/09 09:05:15;;;;;;;5.50;2.97;;;;;;;24.10;39.79;99863.75;4470817;32;33777;-60
2023/11/09 09:07:42;;;;;;;5.53;3.10;;;;;;;24.10;39.86;99860.19;4484422;32;33893;-62
2023/11/09 09:10:12;;;;;;;6.05;3.70;;;;;;;24.09;39.87;99856.66;4484541;32;34249;-60
2023/11/09 09:12:41;;;;;;;8.57;3.47;;;;;;;24.09;39.89;99853.91;4484159;32;33874;-63
2023/11/09 09:15:12;;;;;;;6.60;3.35;;;;;;;24.09;39.85;99855.81;4484184;32;33895;-63
2023/11/09 09:17:42;;;;;;;6.50;2.67;;;;;;;24.08;39.88;99852.25;4483076;32;34824;-62
2023/11/09 09:20:11;;;;;;;5.70;3.08;;;;;;;24.08;39.85;99852.25;4484441;32;33448;-63
2023/11/09 09:22:43;;;;;;;7.53;3.30;;;;;;;24.08;39.87;99843.25;4483264;32;33938;-63
2023/11/09 09:25:11;;;;;;;8.27;3.15;;;;;;;24.08;39.87;99846.81;4483011;32;33980;-64
2023/11/09 09:28:01;;;;;;;7.75;3.20;;;;;;;24.07;39.89;99839.69;4483997;32;34918;-63
2023/11/09 09:30:29;;;;;;;10.10;3.30;;;;;;;24.06;39.90;99832.59;4484166;32;34478;-63
2023/11/09 09:32:57;;;;;;;5.72;3.37;;;;;;;24.07;39.92;99831.53;4484350;32;33510;-64
2023/11/09 09:35:26;;;;;;;7.60;3.10;;;;;;;24.07;39.98;99830.69;4478976;32;34010;-62
2023/11/09 09:38:05;;;;;;;7.87;3.87;;;;;;;24.06;40.04;99846.22;4477246;32;34027;-63
2023/11/09 09:40:36;;;;;;;8.30;2.90;;;;;;;24.06;40.10;99835.31;4483397;32;33093;-60
2023/11/09 09:43:19;;;;;;;7.18;3.12;;;;;;;24.06;40.20;99835.31;4471251;32;34657;-61
2023/11/09 09:45:50;;;;;;;11.85;3.75;;;;;;;24.05;40.27;99839.09;4482583;32;34012;-62
2023/11/09 09:48:18;;;;;;;6.93;3.30;;;;;;;24.06;40.25;99835.31;4469675;32;34615;-62
2023/11/09 09:50:46;;;;;;;10.65;3.17;;;;;;;24.07;40.28;99826.06;4482265;32;33388;-62
2023/11/09 09:53:13;;;;;;;7.85;2.78;;;;;;;24.09;40.27;99834.00;4483528;32;33975;-63
2023/11/09 09:55:41;;;;;;;6.62;2.80;;;;;;;24.10;40.26;99835.66;4482173;32;33738;-63
2023/11/09 09:58:12;;;;;;;9.25;3.37;;;;;;;24.10;40.28;99828.31;4482292;32;34356;-58
2023/11/09 10:00:54;;;;;;;;;;;;;;;24.10;40.26;99827.50;4482631;32;33946;-60
2023/11/09 10:03:23;;;;;;;11.07;3.20;;;;;;;24.19;40.06;99818.75;4481916;32;34959;-60
2023/11/09 10:05:51;;;;;;;13.13;3.37;;;;;;;24.12;40.32;99823.47;4488199;32;33739;-61
2023/11/09 10:08:20;;;;;;;10.38;3.72;;;;;;;24.10;40.36;99814.69;4487308;32;33954;-62
2023/11/09 10:10:49;;;;;;;8.63;3.33;;;;;;;24.10;40.35;99822.03;4488750;31;33573;-62
2023/11/09 10:13:19;;;;;;;11.23;3.70;;;;;;;24.09;40.31;99821.22;4488934;32;33432;-61
2023/11/09 10:15:55;;;;;;;12.98;3.42;;;;;;;24.10;40.37;99813.84;4488613;32;34729;-62
2023/11/09 10:18:29;;;;;;;6.45;2.87;;;;;;;24.08;40.42;99807.81;4474879;32;34260;-62
2023/11/09 10:21:03;;;;;;;9.40;3.22;;;;;;;24.08;40.46;99810.53;4488803;32;32818;-62
2023/11/09 10:23:31;;;;;;;9.00;3.25;;;;;;;24.06;40.48;99813.50;4488727;32;33852;-63
2023/11/09 10:25:59;;;;;;;11.30;3.28;;;;;;;24.06;40.47;99813.50;4488713;32;33868;-63
2023/11/09 10:28:32;;;;;;;8.32;2.85;;;;;;;24.05;40.50;99803.66;4488428;32;33956;-63
2023/11/09 10:31:01;;;;;;;9.50;2.92;;;;;;;24.05;40.50;99794.66;4487498;32;34400;-63
2023/11/09 10:33:28;;;;;;;9.60;2.90;;;;;;;24.04;40.53;99799.25;4487402;32;34684;-62
2023/11/09 10:35:56;;;;;;;8.73;3.10;;;;;;;24.04;40.55;99796.53;4487163;32;33841;-62
2023/11/09 10:38:24;;;;;;;8.65;3.40;;;;;;;24.04;40.57;99793.00;4488488;32;33838;-63
2023/11/09 10:40:54;;;;;;;11.15;3.08;;;;;;;24.03;40.59;99786.72;4488399;32;33423;-62
2023/11/09 10:43:42;;;;;;;12.82;3.80;;;;;;;24.03;40.60;99785.88;4488266;32;34934;-63
2023/11/09 10:46:10;;;;;;;9.20;3.47;;;;;;;24.04;40.58;99793.81;4474161;32;33986;-63
2023/11/09 10:48:40;;;;;;;6.50;3.05;;;;;;;24.02;40.62;99781.50;4474117;32;33754;-62
2023/11/09 10:51:09;;;;;;;7.53;2.85;;;;;;;24.01;40.64;99775.19;4488358;32;33247;-63
2023/11/09 10:53:37;;;;;;;11.00;3.15;;;;;;;24.01;40.69;99774.34;4487134;32;34555;-59
2023/11/09 10:56:09;;;;;;;14.90;3.22;;;;;;;24.00;40.69;99770.81;4488278;32;35143;-63
2023/11/09 10:58:44;;;;;;;9.68;3.10;;;;;;;23.99;40.71;99747.34;4487044;32;34649;-61
2023/11/09 11:01:17;;;;;;;7.65;3.03;;;;;;;24.00;40.69;99750.91;4488447;31;33431;-63
2023/11/09 11:03:51;;;;;;;8.32;2.90;;;;;;;23.98;40.56;99744.88;4488058;32;33902;-63
2023/11/09 11:06:23;;;;;;;7.57;2.47;;;;;;;23.96;40.37;99734.16;4481336;32;34017;-60
2023/11/09 11:08:54;;;;;;;6.70;3.08;;;;;;;23.96;40.09;99739.63;4486306;32;34047;-59
2023/11/09 11:11:24;;;;;;;5.12;2.28;;;;;;;23.95;39.96;99748.87;4486746;32;33640;-60
2023/11/09 11:13:57;;;;;;;8.27;2.87;;;;;;;23.95;39.91;99728.97;4486607;32;34102;-59
2023/11/09 11:16:47;;;;;;;6.53;2.33;;;;;;;23.94;39.77;99736.31;4471342;32;33658;-62
2023/11/09 11:19:23;;;;;;;5.22;2.12;;;;;;;23.94;39.71;99719.97;4485072;32;33621;-60
2023/11/09 11:22:13;;;;;;;6.55;2.75;;;;;;;23.93;39.61;99721.03;4483879;32;33942;-60
2023/11/09 11:25:00;;;;;;;4.82;2.00;;;;;;;23.90;39.49;99729.66;4484199;32;33864;-59
2023/11/09 11:27:34;;;;;;;4.62;2.05;;;;;;;23.91;39.29;99717.69;4484930;32;34870;-61
2023/11/09 11:30:26;;;;;;;6.80;2.30;;;;;;;23.88;39.33;99716.28;4484927;32;33628;-58
2023/11/09 11:32:57;;;;;;;4.20;2.22;;;;;;;23.89;39.28;99719.81;4484878;32;33156;-59
2023/11/09 11:35:34;;;;;;;6.40;2.62;;;;;;;23.86;39.16;99712.09;4481964;32;34650;-59
2023/11/09 11:38:04;;;;;;;5.50;1.95;;;;;;;23.86;39.13;99707.47;4484887;32;33938;-59
2023/11/09 11:40:38;;;;;;;4.78;1.90;;;;;;;23.84;39.13;99712.34;4485000;32;34585;-59
2023/11/09 11:43:08;;;;;;;4.82;2.00;;;;;;;23.84;38.97;99706.06;4484906;32;33284;-62
2023/11/09 11:45:36;;;;;;;6.45;1.80;;;;;;;23.85;38.92;99705.00;4484918;32;33628;-62
2023/11/09 11:48:12;;;;;;;;;;;;;;;23.84;38.89;99709.63;4485053;32;33626;-63
2023/11/09 11:50:42;;;;;;;5.55;2.00;;;;;;;23.92;38.63;99706.56;4484814;32;34620;-63
2023/11/09 11:53:12;;;;;;;4.75;1.92;;;;;;;23.83;38.68;99699.78;4484944;32;33378;-62